Time;durP1;ratioP1;P1;durP2;ratioP2;P2;SDS_P1;SDS_P2;PMS_P1;PMS_P2;Temp;Humidity;BMP_temperature;BMP_pressure;BME280_temperature;BME280_humidity;BME280_pressure;Samples;Min_cycle;Max_cycle;Signal;HPM_P1;HPM_P2
2022/01/28 00:02:12;;;;;;;2.83;0.87;;;4.90;99.90;4.80;100464.00;;;;5003642;27;93031;-71
2022/01/28 00:04:38;;;;;;;4.27;1.23;;;5.00;99.90;4.80;100468.00;;;;5016691;27;93801;-70
2022/01/28 00:07:04;;;;;;;2.33;1.03;;;5.00;99.90;4.80;100464.00;;;;5018357;27;110804;-70
2022/01/28 00:09:29;;;;;;;3.27;1.07;;;4.90;99.90;4.80;100458.00;;;;5017687;27;108683;-70
2022/01/28 00:11:55;;;;;;;1.80;0.70;;;4.90;99.90;4.80;100465.00;;;;5010905;27;123734;-70
2022/01/28 00:14:31;;;;;;;3.70;1.43;;;4.90;99.90;4.80;100462.00;;;;4997919;27;120984;-70
2022/01/28 00:38:44;;;;;;;7.27;1.37;;;5.10;99.90;4.90;100485.00;;;;5016092;27;93660;-70
2022/01/28 00:41:14;;;;;;;1.30;0.87;;;5.00;99.90;4.90;100482.00;;;;5009436;27;92828;-69
2022/01/28 00:43:41;;;;;;;2.80;0.97;;;5.10;99.90;5.00;100492.00;;;;4997472;28;93384;-69
2022/01/28 00:46:07;;;;;;;4.10;0.77;;;5.10;99.90;5.00;100499.00;;;;4998673;27;101381;-69
2022/01/28 00:48:33;;;;;;;0.63;0.57;;;5.10;99.90;4.90;100502.00;;;;5018237;27;92817;-70
2022/01/28 00:50:59;;;;;;;3.80;0.83;;;5.10;99.90;5.00;100519.00;;;;5017308;27;94751;-68
2022/01/28 00:53:25;;;;;;;2.50;0.93;;;5.10;99.90;5.00;100519.00;;;;5016225;27;123078;-70
2022/01/28 00:55:52;;;;;;;2.83;0.83;;;5.10;99.90;5.00;100507.00;;;;5017075;27;122438;-70
2022/01/28 00:58:18;;;;;;;2.60;1.10;;;4.10;99.90;5.00;100516.00;;;;4995364;27;92885;-70
2022/01/28 01:00:44;;;;;;;2.20;0.90;;;5.50;99.90;5.00;100520.00;;;;4993774;28;108962;-70
2022/01/28 01:03:10;;;;;;;0.53;0.53;;;5.20;99.90;4.90;100530.00;;;;4992242;28;123189;-69
2022/01/28 01:05:35;;;;;;;1.27;1.00;;;5.10;99.90;4.80;100530.00;;;;4993076;27;124213;-69
2022/01/28 01:08:04;;;;;;;1.30;0.73;;;5.00;99.90;4.80;100525.00;;;;4992821;28;110439;-69
2022/01/28 01:10:30;;;;;;;1.17;0.50;;;5.00;99.90;4.60;100519.00;;;;4993983;28;92888;-69
2022/01/28 01:12:56;;;;;;;1.80;1.03;;;4.90;99.90;4.50;100530.00;;;;4992685;27;94197;-69
2022/01/28 01:15:26;;;;;;;1.77;1.00;;;4.80;99.90;4.40;100542.00;;;;4993800;27;92890;-69
2022/01/28 01:23:16;;;;;;;5.77;0.70;;;4.40;99.90;4.20;100555.00;;;;5006233;27;94203;-70
2022/01/28 01:25:48;;;;;;;5.00;1.00;;;4.30;99.90;4.20;100557.00;;;;5014090;27;92724;-70
2022/01/28 01:28:19;;;;;;;5.80;1.67;;;4.40;99.90;4.30;100565.00;;;;5012789;27;94032;-71
2022/01/28 01:30:46;;;;;;;3.03;0.93;;;4.40;99.90;4.30;100554.00;;;;4997231;27;92861;-70
2022/01/28 01:33:13;;;;;;;4.07;1.20;;;4.40;99.90;4.30;100582.00;;;;4992557;27;94235;-69
2022/01/28 01:35:40;;;;;;;2.73;0.50;;;4.50;99.90;4.30;100572.00;;;;4995146;27;92717;-68
2022/01/28 01:38:08;;;;;;;1.63;1.00;;;5.00;99.90;4.40;100563.00;;;;4993999;28;93225;-71
2022/01/28 01:40:50;;;;;;;1.23;0.87;;;4.50;99.90;4.50;100575.00;;;;4993924;28;92907;-69
2022/01/28 01:43:30;;;;;;;1.43;1.10;;;4.60;99.90;4.50;100583.00;;;;4976796;28;93268;-70
2022/01/28 01:46:25;;;;;;;1.10;0.70;;;4.70;99.90;4.50;100600.00;;;;4993919;28;92890;-68
2022/01/28 01:54:20;;;;;;;2.23;0.80;;;4.70;99.90;4.60;100568.00;;;;5012508;27;93976;-70
2022/01/28 01:56:45;;;;;;;6.40;1.50;;;4.80;99.90;4.60;100578.00;;;;5012523;27;123228;-69
2022/01/28 01:59:11;;;;;;;2.60;1.07;;;4.80;99.90;4.60;100588.00;;;;4993655;27;101531;-70
2022/01/28 02:01:39;;;;;;;2.17;1.10;;;4.90;99.90;4.60;100592.00;;;;5014277;27;92779;-69
2022/01/28 02:04:06;;;;;;;2.23;1.00;;;4.70;99.90;4.60;100591.00;;;;4993945;27;95148;-70
2022/01/28 02:06:32;;;;;;;2.90;1.03;;;4.70;99.90;4.50;100606.00;;;;5012663;27;93476;-70
2022/01/28 02:08:59;;;;;;;6.63;0.93;;;4.70;99.90;4.40;100604.00;;;;5013107;27;92821;-69
2022/01/28 02:11:25;;;;;;;4.03;0.93;;;4.70;99.90;4.40;100607.00;;;;5009823;27;92316;-69
2022/01/28 02:13:52;;;;;;;6.27;1.20;;;4.60;99.90;4.40;100615.00;;;;4991412;27;123076;-71
2022/01/28 02:16:19;;;;;;;2.23;0.70;;;4.60;99.90;4.40;100602.00;;;;4992860;27;92690;-70
2022/01/28 02:18:45;;;;;;;2.07;0.93;;;4.60;99.90;4.40;100607.00;;;;4992219;27;93866;-70
2022/01/28 02:21:14;;;;;;;2.20;1.27;;;4.50;99.90;4.40;100624.00;;;;4993677;27;93026;-70
2022/01/28 02:23:41;;;;;;;7.03;1.33;;;4.50;99.90;4.40;100605.00;;;;4993699;27;94002;-70
2022/01/28 02:26:11;;;;;;;5.60;0.87;;;4.50;99.90;4.40;100599.00;;;;4992996;27;93616;-70
2022/01/28 02:28:39;;;;;;;3.77;0.73;;;5.60;99.90;4.40;100598.00;;;;4992645;27;92858;-71
2022/01/28 02:31:06;;;;;;;1.80;0.87;;;4.60;99.90;4.50;100608.00;;;;4994464;27;93427;-70
2022/01/28 02:33:31;;;;;;;1.20;1.00;;;4.60;99.90;4.50;100623.00;;;;4993403;27;94073;-71
2022/01/28 02:36:06;;;;;;;6.50;1.10;;;4.60;99.90;4.50;100612.00;;;;4992717;27;93865;-71
2022/01/28 02:38:33;;;;;;;3.60;1.00;;;4.60;99.90;4.60;100631.00;;;;4992557;28;92943;-70
2022/01/28 02:41:01;;;;;;;3.20;1.33;;;4.70;99.90;4.60;100615.00;;;;4993417;28;92606;-70
2022/01/28 02:45:56;;;;;;;4.03;1.17;;;4.70;99.90;4.60;100636.00;;;;4970976;27;92950;-70
2022/01/28 02:48:28;;;;;;;5.60;1.03;;;4.70;99.90;4.60;100633.00;;;;5012815;27;93015;-70
2022/01/28 02:53:57;;;;;;;3.70;1.10;;;4.80;99.90;4.70;100627.00;;;;4975193;28;94168;-69
2022/01/28 02:56:36;;;;;;;5.80;1.30;;;4.80;99.90;4.70;100629.00;;;;4996833;27;93251;-70
2022/01/28 02:59:02;;;;;;;1.97;1.20;;;5.30;99.90;4.70;100637.00;;;;5012421;27;92731;-69
2022/01/28 03:01:28;;;;;;;3.40;1.10;;;4.80;99.90;4.70;100642.00;;;;5013230;27;92352;-70
2022/01/28 03:03:55;;;;;;;6.67;1.60;;;4.90;99.90;4.70;100648.00;;;;4995186;27;92961;-70
2022/01/28 03:06:21;;;;;;;2.80;0.93;;;4.80;99.90;4.70;100649.00;;;;4992194;27;94335;-70
2022/01/28 03:09:00;;;;;;;2.47;1.07;;;4.90;99.90;4.70;100643.00;;;;4992412;27;94971;-70
2022/01/28 03:11:42;;;;;;;4.60;1.27;;;4.90;99.90;4.70;100645.00;;;;4991908;27;92896;-70
2022/01/28 03:17:04;;;;;;;4.93;0.93;;;4.80;99.90;4.70;100659.00;;;;4990370;27;93088;-69
2022/01/28 03:19:42;;;;;;;4.87;1.30;;;4.80;99.90;4.70;100662.00;;;;4992161;27;92993;-69
2022/01/28 03:22:08;;;;;;;1.17;0.90;;;4.90;99.90;4.60;100672.00;;;;4991880;27;92765;-69
2022/01/28 03:24:34;;;;;;;5.03;1.60;;;4.80;99.90;4.60;100683.00;;;;4992278;28;93407;-69
2022/01/28 03:27:06;;;;;;;2.50;0.80;;;4.80;99.90;4.60;100678.00;;;;4991407;28;122688;-68
2022/01/28 03:29:31;;;;;;;2.73;1.03;;;4.80;99.90;4.60;100690.00;;;;4996867;27;92939;-69
2022/01/28 03:31:57;;;;;;;7.50;0.90;;;4.90;99.90;4.50;100700.00;;;;4996603;27;109067;-69
2022/01/28 03:34:23;;;;;;;6.03;1.53;;;4.70;99.90;4.50;100698.00;;;;4990244;28;121905;-68
2022/01/28 03:36:50;;;;;;;4.80;1.00;;;4.70;99.90;4.50;100694.00;;;;4991871;27;102655;-69
2022/01/28 03:39:17;;;;;;;2.50;0.90;;;4.70;99.90;4.50;100700.00;;;;4991512;28;92967;-70
2022/01/28 03:41:43;;;;;;;1.53;1.00;;;4.60;99.90;4.40;100706.00;;;;4993436;27;92966;-69
2022/01/28 03:44:08;;;;;;;2.67;1.33;;;4.60;99.90;4.40;100710.00;;;;4989821;27;124266;-70
2022/01/28 03:46:35;;;;;;;4.03;1.23;;;4.60;99.90;4.40;100701.00;;;;4992205;27;93290;-70
2022/01/28 03:49:02;;;;;;;9.00;1.43;;;4.60;99.90;4.40;100717.00;;;;4991665;27;93007;-69
2022/01/28 03:51:28;;;;;;;5.10;1.43;;;4.60;99.90;4.40;100705.00;;;;4993328;27;91951;-70
2022/01/28 03:53:53;;;;;;;1.50;1.00;;;4.60;99.90;4.40;100728.00;;;;4972480;28;93219;-70
2022/01/28 03:56:19;;;;;;;3.33;1.40;;;4.60;99.90;4.30;100720.00;;;;4977296;28;92904;-70
2022/01/28 03:58:45;;;;;;;6.00;1.30;;;4.50;99.90;4.30;100730.00;;;;4990484;27;102438;-70
2022/01/28 04:01:22;;;;;;;2.67;0.70;;;4.50;99.90;4.30;100726.00;;;;4991817;27;92786;-71
2022/01/28 04:11:54;;;;;;;1.90;0.70;;;4.50;99.90;4.40;100737.00;;;;4952727;27;92909;-71
2022/01/28 04:19:29;;;;;;;8.40;1.20;;;4.70;99.90;4.60;100735.00;;;;4991627;28;92943;-71
2022/01/28 04:21:55;;;;;;;5.63;1.13;;;4.80;99.90;4.60;100777.00;;;;4976445;28;108660;-71
2022/01/28 04:24:21;;;;;;;1.90;1.20;;;4.80;99.90;4.70;100775.00;;;;4989441;28;124013;-72
2022/01/28 04:26:46;;;;;;;9.43;1.20;;;4.80;99.90;4.70;100760.00;;;;4991150;28;94047;-72
2022/01/28 04:29:13;;;;;;;6.43;1.23;;;4.80;99.90;4.70;100774.00;;;;5010688;27;95360;-72
2022/01/28 04:31:46;;;;;;;2.47;1.03;;;4.90;99.90;4.70;100782.00;;;;4987361;27;92968;-72
2022/01/28 04:34:16;;;;;;;2.80;1.07;;;4.90;99.90;4.60;100792.00;;;;4975711;28;94548;-73
2022/01/28 04:37:34;;;;;;;8.73;1.20;;;4.80;99.90;4.40;100775.00;;;;5000633;27;93989;-72
2022/01/28 04:39:39;;;;;;;4.40;1.30;;;4.70;99.90;4.10;100792.00;;;;4999811;27;92880;-72
2022/01/28 04:42:32;;;;;;;2.50;0.60;;;4.50;99.90;3.90;100797.00;;;;4995373;27;92235;-77
2022/01/28 04:47:42;;;;;;;9.03;1.77;;;4.00;99.90;3.60;100785.00;;;;5010497;27;93060;-76
2022/01/28 05:16:51;;;;;;;7.30;2.17;;;3.60;99.90;3.30;100830.00;;;;5010863;27;94135;-72
2022/01/28 05:27:22;;;;;;;2.47;1.30;;;3.50;99.90;3.40;100816.00;;;;4993912;27;92779;-75
2022/01/28 05:29:48;;;;;;;5.30;1.20;;;3.60;99.90;3.40;100823.00;;;;5000879;27;93903;-74
2022/01/28 05:32:14;;;;;;;4.43;1.93;;;3.60;99.90;3.50;100827.00;;;;5013696;27;95105;-74
2022/01/28 05:34:40;;;;;;;1.97;1.33;;;3.70;99.90;3.50;100830.00;;;;4994930;27;92026;-74
2022/01/28 05:37:07;;;;;;;4.93;1.47;;;3.70;99.90;3.60;100844.00;;;;5002795;27;94005;-74
2022/01/28 05:39:34;;;;;;;1.30;0.93;;;3.70;99.90;3.60;100845.00;;;;4992422;28;122765;-73
2022/01/28 05:42:00;;;;;;;4.77;1.37;;;3.80;99.90;3.70;100844.00;;;;4989736;27;94310;-72
2022/01/28 05:44:27;;;;;;;5.37;1.80;;;3.90;99.90;3.70;100830.00;;;;5003141;27;93130;-72
2022/01/28 05:46:56;;;;;;;3.60;1.17;;;3.90;99.90;3.70;100855.00;;;;4980465;27;96285;-73
2022/01/28 05:49:22;;;;;;;8.80;1.67;;;3.90;99.90;3.80;100853.00;;;;4985327;27;92958;-71
2022/01/28 05:51:48;;;;;;;2.60;1.40;;;4.00;99.90;3.80;100861.00;;;;5002630;27;92925;-72
2022/01/28 05:54:14;;;;;;;6.47;1.57;;;4.00;99.90;3.90;100875.00;;;;5010301;27;93049;-71
2022/01/28 05:56:40;;;;;;;3.97;1.37;;;4.10;99.90;3.90;100859.00;;;;5006681;27;93513;-71
2022/01/28 05:59:05;;;;;;;4.97;1.83;;;4.10;99.90;4.00;100868.00;;;;5002968;27;93248;-71
2022/01/28 06:01:31;;;;;;;4.00;1.53;;;4.10;99.90;4.00;100870.00;;;;4996323;27;109793;-71
2022/01/28 06:03:57;;;;;;;7.43;1.37;;;4.20;99.90;4.10;100873.00;;;;5008440;27;106865;-71
2022/01/28 06:06:24;;;;;;;9.57;2.13;;;4.20;99.90;4.10;100897.00;;;;5008313;27;94182;-70
2022/01/28 06:08:54;;;;;;;5.90;1.70;;;3.60;99.90;4.20;100897.00;;;;5004219;27;94241;-71
2022/01/28 06:11:22;;;;;;;3.17;1.50;;;4.30;99.90;4.20;100889.00;;;;5009488;27;92867;-70
2022/01/28 06:13:48;;;;;;;6.93;1.30;;;4.30;99.90;4.30;100892.00;;;;5005344;27;93095;-71
2022/01/28 06:16:16;;;;;;;5.07;1.83;;;4.40;99.90;4.30;100898.00;;;;5009550;27;93189;-70
2022/01/28 06:18:43;;;;;;;3.27;1.33;;;4.40;99.90;4.30;100904.00;;;;4993531;27;95078;-69
2022/01/28 06:21:09;;;;;;;2.50;1.03;;;4.40;99.90;4.30;100908.00;;;;5012947;27;93095;-70
2022/01/28 06:23:35;;;;;;;5.53;1.30;;;4.50;99.90;4.30;100926.00;;;;4995156;27;92281;-69
2022/01/28 06:26:01;;;;;;;3.97;1.63;;;4.50;99.90;4.40;100923.00;;;;4993492;27;94653;-68
2022/01/28 06:28:27;;;;;;;2.77;0.87;;;4.60;99.90;4.30;100919.00;;;;4994307;27;93094;-68
2022/01/28 06:30:54;;;;;;;2.37;1.67;;;4.50;99.90;4.30;100935.00;;;;5011044;27;93856;-68
2022/01/28 06:33:20;;;;;;;4.30;1.20;;;4.50;99.90;4.30;100937.00;;;;5012986;27;93072;-69
2022/01/28 06:35:47;;;;;;;4.83;1.57;;;5.30;99.90;4.30;100939.00;;;;5013014;27;96994;-68
2022/01/28 06:38:13;;;;;;;2.97;1.57;;;4.50;99.90;4.30;100936.00;;;;5010409;27;101174;-68
2022/01/28 06:40:39;;;;;;;2.10;0.93;;;4.50;99.90;4.20;100922.00;;;;5013642;27;92880;-68
2022/01/28 06:43:10;;;;;;;5.23;2.20;;;4.40;99.90;4.20;100944.00;;;;5011590;27;95602;-68
2022/01/28 06:45:39;;;;;;;5.73;1.40;;;4.50;99.90;4.20;100958.00;;;;5012505;27;98675;-68
2022/01/28 06:48:07;;;;;;;9.30;1.47;;;4.40;99.90;4.20;100956.00;;;;5010841;27;93668;-68
2022/01/28 06:50:34;;;;;;;9.17;1.30;;;4.40;99.90;4.20;100954.00;;;;4975205;28;92991;-69
2022/01/28 06:52:59;;;;;;;3.03;1.57;;;4.40;99.90;4.10;100973.00;;;;4974315;27;93084;-69
2022/01/28 06:55:25;;;;;;;3.50;1.10;;;4.30;99.90;4.10;100979.00;;;;5011034;27;115638;-68
2022/01/28 06:57:53;;;;;;;7.20;2.07;;;4.30;99.90;4.00;100983.00;;;;5009137;27;123130;-69
2022/01/28 07:00:18;;;;;;;4.87;1.00;;;4.30;99.90;4.00;100985.00;;;;4994698;27;92940;-69
2022/01/28 07:02:45;;;;;;;2.37;1.00;;;4.20;99.90;4.00;100967.00;;;;4996090;27;104836;-69
2022/01/28 07:05:11;;;;;;;3.63;1.50;;;4.20;99.90;4.10;100973.00;;;;4991211;28;92976;-69
2022/01/28 07:07:36;;;;;;;5.27;1.20;;;4.30;99.90;4.10;100983.00;;;;5006115;27;92686;-68
2022/01/28 07:10:03;;;;;;;2.73;1.23;;;4.30;99.90;4.10;100983.00;;;;5011917;27;109746;-69
2022/01/28 07:12:29;;;;;;;6.90;1.40;;;4.30;99.90;4.10;101002.00;;;;5010116;27;92147;-69
2022/01/28 07:14:55;;;;;;;7.87;1.73;;;4.30;99.90;4.10;101001.00;;;;5010375;27;121987;-69
2022/01/28 07:17:20;;;;;;;5.87;1.97;;;4.30;99.90;4.20;101005.00;;;;5010076;27;92807;-69
2022/01/28 07:19:46;;;;;;;5.43;1.77;;;4.30;99.90;4.20;101006.00;;;;4992576;27;110523;-68
2022/01/28 07:22:12;;;;;;;7.70;1.30;;;4.30;99.90;4.20;101007.00;;;;5011015;27;108140;-68
2022/01/28 07:24:38;;;;;;;5.70;1.33;;;3.80;99.90;4.20;101006.00;;;;5011802;27;97368;-69
2022/01/28 07:27:04;;;;;;;5.40;1.50;;;4.30;99.90;4.20;101007.00;;;;4989266;28;94693;-69
2022/01/28 07:29:32;;;;;;;8.27;2.00;;;4.40;99.90;4.20;101009.00;;;;4995565;27;94616;-68
2022/01/28 07:31:59;;;;;;;3.70;1.40;;;4.40;99.90;4.30;101015.00;;;;4991793;28;92713;-69
2022/01/28 07:34:25;;;;;;;7.30;1.53;;;4.40;99.90;4.30;101029.00;;;;4972710;28;93438;-70
2022/01/28 07:36:51;;;;;;;6.23;1.57;;;4.50;99.90;4.30;101023.00;;;;4978064;28;92468;-69
2022/01/28 07:39:17;;;;;;;3.63;1.80;;;4.50;99.90;4.30;101040.00;;;;4991958;28;93086;-68
2022/01/28 07:41:42;;;;;;;3.77;1.20;;;4.50;99.90;4.30;101055.00;;;;5005944;27;92664;-69
2022/01/28 07:44:08;;;;;;;3.10;1.23;;;4.40;99.90;4.20;101031.00;;;;5011069;27;94236;-69
2022/01/28 07:46:34;;;;;;;6.30;1.20;;;4.40;99.90;4.20;101055.00;;;;4999744;27;94145;-68
2022/01/28 07:49:01;;;;;;;12.97;1.97;;;4.40;99.90;4.20;101068.00;;;;4992352;28;92776;-69
2022/01/28 07:51:26;;;;;;;5.80;1.40;;;4.40;99.90;4.20;101079.00;;;;4992498;27;92987;-69
2022/01/28 07:53:52;;;;;;;2.63;1.53;;;4.40;99.90;4.20;101072.00;;;;4990432;28;122016;-70
2022/01/28 07:56:19;;;;;;;5.83;2.07;;;4.40;99.90;4.10;101085.00;;;;4991216;27;93327;-69
2022/01/28 07:58:44;;;;;;;6.10;1.63;;;4.30;99.90;4.10;101088.00;;;;4991898;28;92827;-68
2022/01/28 08:01:10;;;;;;;1.23;1.13;;;4.30;99.90;4.10;101085.00;;;;5000319;27;92036;-69
2022/01/28 08:03:36;;;;;;;10.53;1.33;;;4.30;99.90;4.10;101094.00;;;;5010517;27;115027;-69
2022/01/28 08:06:02;;;;;;;5.97;1.37;;;4.20;99.90;4.10;101100.00;;;;5010497;27;123147;-69
2022/01/28 08:08:27;;;;;;;3.70;1.33;;;4.30;99.90;4.00;101100.00;;;;5015142;27;95127;-68
2022/01/28 08:10:53;;;;;;;2.37;1.40;;;4.20;99.90;4.00;101114.00;;;;5014477;27;103852;-71
2022/01/28 08:13:19;;;;;;;6.53;1.60;;;4.30;99.90;4.00;101117.00;;;;5002958;27;102575;-72
2022/01/28 08:15:44;;;;;;;8.27;1.43;;;4.20;99.90;4.00;101121.00;;;;4975903;28;101107;-69
2022/01/28 08:18:11;;;;;;;9.17;1.83;;;4.20;99.90;4.00;101116.00;;;;4993668;28;111575;-69
2022/01/28 08:20:38;;;;;;;3.17;1.10;;;4.20;99.90;4.00;101122.00;;;;4976590;28;92852;-70
2022/01/28 08:23:05;;;;;;;3.27;1.50;;;4.20;99.90;4.00;101129.00;;;;4976091;28;93214;-70
2022/01/28 08:25:34;;;;;;;4.03;1.10;;;4.50;99.90;4.00;101138.00;;;;4993910;28;93367;-70
2022/01/28 08:28:02;;;;;;;8.63;1.50;;;4.50;99.90;4.00;101136.00;;;;4994900;27;93381;-70
2022/01/28 08:30:29;;;;;;;5.43;1.83;;;4.20;99.90;4.00;101136.00;;;;4994511;28;95121;-70
2022/01/28 08:32:55;;;;;;;11.40;2.37;;;4.20;99.90;4.00;101122.00;;;;4987181;28;95112;-70
2022/01/28 08:35:32;;;;;;;9.03;1.33;;;4.10;99.90;4.00;101142.00;;;;4984378;28;107428;-68
2022/01/28 08:37:59;;;;;;;5.70;2.17;;;4.20;99.90;4.00;101164.00;;;;4995086;28;92818;-69
2022/01/28 08:40:27;;;;;;;12.50;1.77;;;4.20;99.90;4.10;101159.00;;;;4994635;28;92963;-69
2022/01/28 08:42:54;;;;;;;3.77;1.30;;;4.20;99.90;4.10;101163.00;;;;4995861;27;94082;-70
2022/01/28 08:45:20;;;;;;;5.73;1.40;;;4.30;99.90;4.20;101172.00;;;;4993424;28;107128;-69
2022/01/28 08:47:46;;;;;;;4.03;1.90;;;4.20;99.90;4.20;101166.00;;;;4995086;27;93113;-71
2022/01/28 08:50:12;;;;;;;4.83;1.40;;;4.30;99.90;4.20;101180.00;;;;4994935;28;94923;-69
2022/01/28 08:52:38;;;;;;;6.80;1.43;;;4.40;99.90;4.20;101193.00;;;;4994610;27;123348;-69
2022/01/28 08:55:05;;;;;;;7.47;1.67;;;4.30;99.90;4.20;101196.00;;;;4992819;28;123877;-69
2022/01/28 08:57:31;;;;;;;5.53;1.70;;;4.40;99.90;4.30;101193.00;;;;4994875;27;93842;-70
2022/01/28 08:59:58;;;;;;;5.47;1.10;;;4.40;99.90;4.30;101192.00;;;;4994406;28;93010;-69
2022/01/28 09:02:24;;;;;;;1.17;0.73;;;4.40;99.90;4.30;101211.00;;;;4983349;28;93316;-69
2022/01/28 09:04:49;;;;;;;11.97;1.60;;;4.50;99.90;4.30;101221.00;;;;4993761;28;104896;-69
2022/01/28 09:07:18;;;;;;;6.97;1.80;;;3.60;99.90;4.30;101228.00;;;;5004315;27;112209;-68
2022/01/28 09:09:50;;;;;;;10.07;1.57;;;4.50;99.90;4.30;101222.00;;;;5014536;27;93038;-69
2022/01/28 09:12:39;;;;;;;2.80;1.10;;;4.50;99.90;4.40;101235.00;;;;4996295;27;92746;-68
2022/01/28 09:15:06;;;;;;;5.87;1.67;;;4.50;99.90;4.40;101251.00;;;;4975296;28;94882;-68
2022/01/28 09:17:32;;;;;;;6.60;2.07;;;4.60;99.90;4.40;101247.00;;;;4993464;27;92674;-68
2022/01/28 09:19:58;;;;;;;2.73;1.30;;;4.50;99.90;4.40;101243.00;;;;4991714;28;93012;-68
2022/01/28 09:22:24;;;;;;;5.83;2.00;;;4.60;99.90;4.50;101249.00;;;;4993940;27;110938;-71
2022/01/28 09:24:51;;;;;;;2.37;1.30;;;4.60;99.90;4.50;101259.00;;;;4993615;28;93746;-69
2022/01/28 09:27:18;;;;;;;2.30;1.27;;;4.60;99.90;4.50;101249.00;;;;4994163;27;92856;-70
2022/01/28 09:29:43;;;;;;;6.90;1.70;;;4.60;99.90;4.50;101256.00;;;;4997068;27;92998;-69
2022/01/28 09:32:09;;;;;;;3.57;1.83;;;4.70;99.90;4.50;101249.00;;;;5013987;27;93279;-69
2022/01/28 09:34:35;;;;;;;12.17;1.57;;;4.70;99.90;4.60;101260.00;;;;5014347;27;93229;-69
2022/01/28 09:37:01;;;;;;;3.20;1.30;;;4.70;99.90;4.60;101258.00;;;;5004843;27;92861;-70
2022/01/28 09:39:29;;;;;;;4.30;1.87;;;4.70;99.90;4.60;101270.00;;;;5002422;27;108974;-70
2022/01/28 09:42:01;;;;;;;10.47;2.20;;;4.80;99.90;4.60;101271.00;;;;5012790;27;94219;-70
2022/01/28 09:44:31;;;;;;;5.57;1.43;;;4.80;99.90;4.60;101274.00;;;;4984045;28;92874;-70
2022/01/28 09:46:59;;;;;;;7.33;1.57;;;4.80;99.90;4.70;101283.00;;;;4994512;27;94172;-71
2022/01/28 09:49:27;;;;;;;2.87;1.70;;;4.80;99.90;4.70;101286.00;;;;5014249;27;92808;-70
2022/01/28 09:51:53;;;;;;;5.17;1.40;;;4.90;99.90;4.70;101294.00;;;;4994149;27;94278;-70
2022/01/28 09:54:19;;;;;;;3.23;1.20;;;4.80;99.90;4.70;101289.00;;;;4993900;27;108348;-70
2022/01/28 09:56:45;;;;;;;6.53;1.60;;;4.80;99.90;4.70;101283.00;;;;4987513;28;92926;-69
2022/01/28 09:59:10;;;;;;;7.53;1.93;;;4.90;99.90;4.70;101297.00;;;;4993609;28;92845;-70
2022/01/28 10:01:54;;;;;;;6.17;1.47;;;6.40;99.90;4.70;101292.00;;;;4973877;28;122714;-70
2022/01/28 10:04:21;;;;;;;5.60;1.67;;;4.90;99.90;4.70;101296.00;;;;4975353;27;92566;-70
2022/01/28 10:06:48;;;;;;;6.67;1.80;;;5.00;99.90;4.80;101296.00;;;;4987220;27;93005;-69
2022/01/28 10:09:18;;;;;;;6.17;2.07;;;4.90;99.90;4.80;101306.00;;;;4974502;28;92945;-69
2022/01/28 10:11:47;;;;;;;9.70;1.63;;;4.90;99.90;4.80;101297.00;;;;4993953;27;94544;-69
2022/01/28 10:14:17;;;;;;;4.93;1.27;;;5.00;99.90;4.80;101304.00;;;;5012250;27;94776;-68
2022/01/28 10:17:03;;;;;;;7.27;1.80;;;5.10;99.90;4.90;101319.00;;;;5013151;27;92719;-69
2022/01/28 10:19:40;;;;;;;5.43;1.90;;;5.00;99.90;4.90;101315.00;;;;5011117;27;96772;-69
2022/01/28 10:22:19;;;;;;;6.30;1.60;;;5.10;99.90;5.00;101318.00;;;;5012615;27;93306;-69
2022/01/28 10:24:45;;;;;;;11.00;2.13;;;5.10;99.90;5.00;101324.00;;;;5012973;27;92947;-70
2022/01/28 10:27:11;;;;;;;4.57;1.93;;;5.20;99.90;5.10;101343.00;;;;5012711;27;93224;-69
2022/01/28 10:29:43;;;;;;;12.73;1.93;;;5.20;99.90;5.10;101342.00;;;;5011746;27;108589;-70
2022/01/28 10:32:17;;;;;;;4.00;1.60;;;5.10;99.90;5.10;101346.00;;;;4989573;28;93969;-70
2022/01/28 10:34:50;;;;;;;3.43;1.63;;;5.20;99.90;5.20;101346.00;;;;4992426;28;94179;-70
2022/01/28 10:37:20;;;;;;;9.93;2.07;;;5.30;99.90;5.20;101359.00;;;;5010847;27;93648;-69
2022/01/28 10:39:53;;;;;;;6.97;2.50;;;5.40;99.90;5.30;101342.00;;;;5013216;27;93067;-70
2022/01/28 10:42:25;;;;;;;7.47;2.00;;;5.40;99.90;5.30;101352.00;;;;5012124;27;93263;-70
2022/01/28 10:44:59;;;;;;;5.47;1.77;;;5.30;99.90;5.30;101360.00;;;;5011935;27;92709;-70
2022/01/28 10:47:44;;;;;;;7.10;1.40;;;5.40;99.90;5.30;101366.00;;;;5012372;27;92868;-71
2022/01/28 10:50:30;;;;;;;7.73;2.00;;;5.40;99.90;5.30;101368.00;;;;4994119;27;93042;-71
2022/01/28 10:53:17;;;;;;;8.33;2.23;;;5.40;99.90;5.40;101376.00;;;;4995688;27;92891;-72
2022/01/28 10:55:52;;;;;;;7.30;1.90;;;5.50;99.90;5.30;101376.00;;;;4993688;27;92119;-71
2022/01/28 10:58:21;;;;;;;6.60;1.53;;;5.50;99.90;5.40;101368.00;;;;5010050;27;92710;-70
2022/01/28 11:00:53;;;;;;;9.90;2.13;;;5.50;99.90;5.40;101385.00;;;;5012290;27;92762;-71
2022/01/28 11:03:26;;;;;;;6.63;1.70;;;5.50;99.90;5.40;101386.00;;;;4992049;27;95041;-70
2022/01/28 11:05:58;;;;;;;6.97;2.33;;;5.50;99.90;5.40;101374.00;;;;4990974;28;93971;-71
2022/01/28 11:08:26;;;;;;;12.10;2.33;;;5.60;99.90;5.40;101387.00;;;;4975008;28;92882;-71
2022/01/28 11:10:52;;;;;;;4.57;2.03;;;5.50;99.90;5.40;101386.00;;;;4992516;28;92933;-71
2022/01/28 11:13:18;;;;;;;6.43;2.10;;;5.60;99.90;5.40;101377.00;;;;4991879;28;93294;-71
2022/01/28 11:15:45;;;;;;;11.03;1.77;;;5.60;99.90;5.40;101393.00;;;;4989923;27;123460;-72
2022/01/28 11:18:11;;;;;;;6.87;1.60;;;5.60;99.90;5.50;101401.00;;;;4973298;28;92791;-71
2022/01/28 11:20:59;;;;;;;5.37;1.13;;;5.60;99.90;5.40;101385.00;;;;4973481;28;99297;-71
2022/01/28 11:23:52;;;;;;;6.33;1.47;;;5.60;99.90;5.40;101397.00;;;;4957095;28;94152;-72
2022/01/28 11:26:28;;;;;;;4.23;1.40;;;5.60;99.90;5.40;101386.00;;;;4970304;28;92959;-71
2022/01/28 11:28:57;;;;;;;7.50;1.87;;;5.60;99.90;5.50;101390.00;;;;4977607;28;93870;-71
2022/01/28 11:31:47;;;;;;;4.73;1.87;;;5.60;99.90;5.60;101402.00;;;;5008822;27;93044;-71
2022/01/28 11:34:30;;;;;;;6.50;1.60;;;5.70;99.90;5.60;101400.00;;;;4991757;28;93611;-72
2022/01/28 11:37:17;;;;;;;7.10;1.80;;;5.70;99.90;5.70;101402.00;;;;4991762;27;93134;-71
2022/01/28 11:39:46;;;;;;;7.00;1.80;;;5.80;99.90;5.70;101402.00;;;;4972675;28;92774;-71
2022/01/28 11:42:18;;;;;;;4.63;1.43;;;5.90;99.90;5.80;101409.00;;;;4979787;28;92731;-71
2022/01/28 11:44:54;;;;;;;6.50;1.60;;;5.90;99.90;5.80;101412.00;;;;4972806;28;93062;-71
2022/01/28 11:47:52;;;;;;;2.80;1.33;;;5.90;99.90;5.80;101396.00;;;;4991051;28;93264;-71
2022/01/28 11:50:22;;;;;;;7.73;1.53;;;5.90;99.90;5.80;101400.00;;;;4966032;28;93053;-71
2022/01/28 11:52:56;;;;;;;3.63;1.47;;;6.00;99.90;5.80;101402.00;;;;4988894;28;92737;-70
2022/01/28 11:55:21;;;;;;;5.67;1.50;;;5.90;99.90;5.80;101384.00;;;;4985982;27;94258;-70
2022/01/28 11:58:05;;;;;;;8.10;1.67;;;6.00;99.90;5.90;101398.00;;;;5001977;27;94842;-70
2022/01/28 12:00:47;;;;;;;8.53;2.10;;;5.90;99.90;6.00;101407.00;;;;5004188;27;93050;-72
2022/01/28 12:03:24;;;;;;;7.43;1.70;;;6.10;99.90;6.20;101391.00;;;;4982199;27;92988;-71
2022/01/28 12:05:56;;;;;;;3.10;1.10;;;6.20;99.90;6.50;101400.00;;;;4989120;27;93008;-72
2022/01/28 12:08:29;;;;;;;3.07;1.37;;;6.50;99.90;7.00;101408.00;;;;4998575;27;93136;-71
2022/01/28 12:10:57;;;;;;;7.47;1.93;;;6.90;99.40;7.10;101433.00;;;;4988200;27;93016;-71
2022/01/28 12:13:54;;;;;;;6.77;1.60;;;7.10;97.80;7.10;101418.00;;;;4962708;27;92426;-71
2022/01/28 12:16:31;;;;;;;3.80;1.67;;;7.20;97.30;7.20;101413.00;;;;4986632;27;93875;-71
2022/01/28 12:19:01;;;;;;;5.53;1.50;;;7.20;95.80;7.40;101436.00;;;;4989458;27;92994;-71
2022/01/28 12:21:34;;;;;;;8.27;1.47;;;7.40;94.90;7.40;101425.00;;;;4988104;27;93563;-71
2022/01/28 12:24:18;;;;;;;3.70;1.30;;;7.50;93.40;7.30;101430.00;;;;4990133;27;92758;-71
2022/01/28 12:27:13;;;;;;;2.50;1.43;;;7.40;92.40;7.40;101425.00;;;;4983273;27;106120;-70
2022/01/28 12:29:50;;;;;;;10.67;2.30;;;7.40;93.00;7.40;101441.00;;;;4970554;27;95167;-71
2022/01/28 12:32:24;;;;;;;2.43;1.07;;;7.40;93.20;7.30;101437.00;;;;4987352;27;93040;-72
2022/01/28 12:34:50;;;;;;;8.13;1.33;;;7.50;92.70;7.30;101443.00;;;;4989814;27;93066;-70
2022/01/28 12:37:21;;;;;;;4.93;1.90;;;7.40;93.30;7.30;101451.00;;;;4964635;27;93936;-71
2022/01/28 12:40:02;;;;;;;6.87;1.77;;;7.40;94.50;7.30;101448.00;;;;4988577;27;94679;-71
2022/01/28 12:42:32;;;;;;;8.37;1.93;;;7.40;93.90;7.30;101440.00;;;;4996602;27;92973;-71